createdAt,value
2022-11-07T00:01:09.881Z,0.95
2022-11-07T00:03:36.268Z,1.00
2022-11-07T00:06:02.670Z,0.89
2022-11-07T00:08:29.053Z,1.03
2022-11-07T00:10:55.428Z,1.03
2022-11-07T00:13:21.849Z,1.02
2022-11-07T00:15:48.236Z,1.09
2022-11-07T00:18:14.640Z,1.03
2022-11-07T00:20:41.023Z,0.81
2022-11-07T00:23:07.392Z,0.95
2022-11-07T00:25:33.792Z,1.06
2022-11-07T00:28:00.182Z,1.08
2022-11-07T00:30:26.571Z,0.95
2022-11-07T00:32:56.377Z,0.98
2022-11-07T00:35:26.328Z,1.18
2022-11-07T00:37:52.711Z,1.21
2022-11-07T00:40:19.106Z,1.33
2022-11-07T00:42:45.489Z,1.51
2022-11-07T00:45:11.915Z,1.37
2022-11-07T00:47:38.359Z,1.42
2022-11-07T00:50:04.743Z,1.46
2022-11-07T00:52:31.121Z,1.40
2022-11-07T00:54:57.510Z,1.29
2022-11-07T00:57:23.924Z,1.32
2022-11-07T00:59:50.325Z,1.49
2022-11-07T01:02:16.804Z,1.27
2022-11-07T01:04:43.256Z,1.23
2022-11-07T01:07:09.636Z,1.37
2022-11-07T01:09:36.121Z,1.39
2022-11-07T01:12:02.499Z,1.16
2022-11-07T01:14:28.879Z,0.97
2022-11-07T01:16:55.277Z,1.07
2022-11-07T01:19:21.662Z,1.17
2022-11-07T01:21:48.070Z,1.15
2022-11-07T01:24:14.447Z,1.17
2022-11-07T01:26:40.851Z,1.10
2022-11-07T01:29:07.296Z,1.08
2022-11-07T01:31:33.685Z,1.15
2022-11-07T01:34:00.082Z,1.00
2022-11-07T01:36:26.490Z,1.02
2022-11-07T01:38:52.881Z,1.04
2022-11-07T01:41:19.284Z,0.91
2022-11-07T01:43:45.676Z,0.88
2022-11-07T01:46:12.056Z,0.95
2022-11-07T01:48:38.472Z,0.89
2022-11-07T01:51:04.855Z,0.92
2022-11-07T01:53:31.254Z,0.86
2022-11-07T01:55:57.634Z,0.88
2022-11-07T01:58:24.043Z,1.19
2022-11-07T02:00:50.428Z,1.07
2022-11-07T02:03:17.225Z,1.05
2022-11-07T02:05:43.855Z,1.08
2022-11-07T02:08:10.234Z,1.26
2022-11-07T02:10:36.614Z,1.05
2022-11-07T02:13:03.013Z,1.09
2022-11-07T02:15:29.396Z,1.25
2022-11-07T02:17:55.759Z,1.20
2022-11-07T02:20:22.149Z,1.16
2022-11-07T02:22:48.520Z,1.15
2022-11-07T02:25:14.902Z,1.15
2022-11-07T02:27:41.296Z,1.22
2022-11-07T02:30:07.701Z,1.09
2022-11-07T02:32:34.141Z,1.24
2022-11-07T02:35:00.519Z,1.10
2022-11-07T02:37:26.909Z,1.21
2022-11-07T02:39:53.314Z,1.20
2022-11-07T02:42:19.730Z,1.21
2022-11-07T02:44:46.239Z,1.17
2022-11-07T02:47:12.621Z,1.21
2022-11-07T02:49:38.995Z,1.17
2022-11-07T02:52:05.391Z,1.18
2022-11-07T02:54:31.772Z,1.09
2022-11-07T02:56:58.251Z,1.08
2022-11-07T02:59:27.161Z,1.10
2022-11-07T03:01:53.878Z,1.16
2022-11-07T03:04:20.417Z,1.06
2022-11-07T03:06:46.821Z,1.10
2022-11-07T03:09:13.220Z,1.04
2022-11-07T03:11:39.611Z,1.13
2022-11-07T03:14:06.006Z,1.17
2022-11-07T03:16:32.436Z,1.17
2022-11-07T03:18:58.868Z,1.24
2022-11-07T03:21:25.303Z,1.52
2022-11-07T03:23:51.732Z,1.31
2022-11-07T03:26:18.152Z,1.25
2022-11-07T03:28:44.570Z,1.47
2022-11-07T03:31:10.980Z,1.22
2022-11-07T03:33:37.372Z,1.17
2022-11-07T03:36:03.789Z,1.26
2022-11-07T03:38:30.197Z,3.28
2022-11-07T03:40:56.611Z,2.69
2022-11-07T03:43:23.019Z,1.96
2022-11-07T03:45:49.408Z,1.50
2022-11-07T03:48:15.800Z,1.15
2022-11-07T03:50:42.171Z,0.97
2022-11-07T03:53:08.560Z,0.97
2022-11-07T03:55:34.953Z,0.82
2022-11-07T03:58:01.333Z,0.95
2022-11-07T04:00:27.740Z,1.06
2022-11-07T04:02:54.208Z,0.86
2022-11-07T04:05:20.711Z,1.09
2022-11-07T04:07:47.117Z,0.81
2022-11-07T04:10:13.508Z,0.87
2022-11-07T04:12:39.931Z,0.83
2022-11-07T04:15:06.326Z,0.80
2022-11-07T04:17:32.755Z,1.08
2022-11-07T04:19:59.170Z,0.98
2022-11-07T04:22:25.553Z,0.91
2022-11-07T04:24:51.927Z,0.89
2022-11-07T04:27:18.331Z,0.81
2022-11-07T04:29:44.719Z,0.98
2022-11-07T04:32:11.150Z,0.95
2022-11-07T04:34:37.522Z,0.91
2022-11-07T04:37:03.922Z,0.96
2022-11-07T04:39:30.308Z,0.85
2022-11-07T04:41:56.897Z,0.86
2022-11-07T04:44:23.343Z,0.90
2022-11-07T04:46:49.728Z,0.85
2022-11-07T04:49:16.133Z,0.94
2022-11-07T04:51:42.608Z,0.90
2022-11-07T04:54:08.984Z,0.81
2022-11-07T04:56:35.356Z,0.73
2022-11-07T04:59:01.766Z,0.88
2022-11-07T05:01:28.200Z,0.89
2022-11-07T05:03:54.660Z,1.04
2022-11-07T05:06:21.052Z,1.07
2022-11-07T05:08:47.470Z,0.89
2022-11-07T05:11:13.866Z,1.06
2022-11-07T05:13:40.254Z,1.01
2022-11-07T05:16:06.671Z,0.95
2022-11-07T05:18:33.083Z,0.90
2022-11-07T05:20:59.503Z,1.08
2022-11-07T05:23:25.904Z,0.95
2022-11-07T05:25:52.305Z,0.86
2022-11-07T05:28:23.731Z,0.93
2022-11-07T05:30:54.753Z,0.84
2022-11-07T05:33:21.178Z,0.93
2022-11-07T05:35:47.583Z,0.99
2022-11-07T05:38:13.986Z,0.97
2022-11-07T05:40:40.380Z,0.99
2022-11-07T05:43:06.778Z,0.93
2022-11-07T05:45:33.174Z,0.89
2022-11-07T05:47:59.813Z,0.86
2022-11-07T05:50:26.228Z,0.89
2022-11-07T05:52:52.681Z,0.98
2022-11-07T05:55:19.116Z,1.05
2022-11-07T05:57:45.506Z,1.01
2022-11-07T06:00:11.906Z,0.91
2022-11-07T06:02:38.375Z,0.89
2022-11-07T06:05:04.860Z,0.92
2022-11-07T06:07:31.268Z,0.85
2022-11-07T06:09:57.662Z,0.76
2022-11-07T06:12:24.046Z,0.75
2022-11-07T06:14:50.481Z,0.93
2022-11-07T06:17:16.883Z,0.78
2022-11-07T06:19:43.268Z,0.90
2022-11-07T06:22:09.681Z,0.99
2022-11-07T06:24:36.096Z,1.04
2022-11-07T06:27:02.494Z,0.97
2022-11-07T06:29:28.996Z,1.07
2022-11-07T06:31:55.423Z,1.13
2022-11-07T06:34:21.837Z,1.17
2022-11-07T06:36:56.531Z,1.26
2022-11-07T06:39:26.537Z,1.28
2022-11-07T06:41:52.963Z,1.30
2022-11-07T06:44:19.399Z,1.56
2022-11-07T06:46:45.785Z,1.40
2022-11-07T06:49:12.224Z,1.43
2022-11-07T06:51:38.776Z,1.30
2022-11-07T06:54:06.438Z,1.09
2022-11-07T06:56:32.835Z,1.47
2022-11-07T06:58:59.221Z,1.30
2022-11-07T07:01:25.689Z,1.28
2022-11-07T07:03:52.206Z,1.41
2022-11-07T07:06:18.567Z,1.58
2022-11-07T07:08:44.959Z,1.64
2022-11-07T07:11:11.376Z,1.61
2022-11-07T07:13:37.775Z,1.53
2022-11-07T07:16:04.292Z,1.44
2022-11-07T07:18:30.698Z,1.48
2022-11-07T07:20:57.116Z,1.52
2022-11-07T07:23:23.582Z,1.58
2022-11-07T07:25:49.987Z,1.39
2022-11-07T07:28:16.416Z,1.28
2022-11-07T07:30:45.982Z,1.42
2022-11-07T07:33:15.388Z,1.30
2022-11-07T07:35:42.009Z,1.21
2022-11-07T07:38:08.404Z,1.21
2022-11-07T07:40:34.813Z,1.33
2022-11-07T07:43:01.329Z,1.27
2022-11-07T07:45:27.761Z,1.23
2022-11-07T07:47:54.191Z,1.21
2022-11-07T07:50:20.589Z,1.00
2022-11-07T07:52:47.000Z,1.04
2022-11-07T07:55:13.453Z,1.30
2022-11-07T07:57:39.864Z,1.17
2022-11-07T08:00:06.466Z,1.12
2022-11-07T08:02:32.977Z,1.26
2022-11-07T08:04:59.433Z,1.42
2022-11-07T08:07:25.821Z,1.46
2022-11-07T08:09:52.205Z,1.59
2022-11-07T08:12:18.633Z,1.60
2022-11-07T08:14:45.020Z,1.49
2022-11-07T08:17:11.418Z,1.39
2022-11-07T08:19:37.948Z,1.69
2022-11-07T08:22:04.356Z,1.76
2022-11-07T08:24:30.778Z,1.73
2022-11-07T08:26:57.166Z,2.02
2022-11-07T08:29:23.571Z,1.69
2022-11-07T08:31:49.989Z,1.59
2022-11-07T08:34:18.467Z,1.86
2022-11-07T08:36:44.870Z,1.57
2022-11-07T08:39:11.254Z,1.93
2022-11-07T08:41:37.671Z,1.51
2022-11-07T08:44:04.093Z,1.65
2022-11-07T08:46:30.515Z,1.76
2022-11-07T08:48:56.918Z,1.28
2022-11-07T08:51:23.348Z,1.44
2022-11-07T08:53:49.763Z,1.22
2022-11-07T08:56:16.165Z,1.39
2022-11-07T08:58:42.571Z,1.35
2022-11-07T09:01:09.137Z,1.73
2022-11-07T09:03:57.545Z,1.51
2022-11-07T09:06:22.100Z,1.52
2022-11-07T09:08:48.497Z,1.43
2022-11-07T09:11:14.895Z,1.63
2022-11-07T09:13:41.292Z,1.45
2022-11-07T09:16:07.697Z,1.47
2022-11-07T09:18:34.169Z,1.59
2022-11-07T09:21:00.627Z,1.62
2022-11-07T09:23:27.228Z,1.60
2022-11-07T09:25:53.656Z,1.66
2022-11-07T09:28:20.091Z,1.61
2022-11-07T09:30:46.511Z,1.50
2022-11-07T09:33:13.215Z,1.73
2022-11-07T09:35:39.814Z,1.62
2022-11-07T09:38:06.203Z,1.73
2022-11-07T09:40:32.574Z,1.62
2022-11-07T09:42:58.982Z,1.66
2022-11-07T09:45:25.457Z,1.73
2022-11-07T09:47:51.881Z,1.70
2022-11-07T09:50:18.334Z,1.71
2022-11-07T09:52:44.741Z,1.68
2022-11-07T09:55:11.130Z,1.55
2022-11-07T09:57:37.546Z,1.75
2022-11-07T10:00:03.937Z,1.72
2022-11-07T10:02:30.412Z,1.86
2022-11-07T10:04:56.918Z,1.71
2022-11-07T10:07:23.297Z,1.63
2022-11-07T10:09:49.710Z,1.69
2022-11-07T10:12:16.087Z,1.80
2022-11-07T10:14:42.498Z,1.75
2022-11-07T10:17:08.883Z,1.75
2022-11-07T10:19:35.286Z,1.74
2022-11-07T10:22:01.680Z,1.59
2022-11-07T10:24:28.205Z,1.73
2022-11-07T10:26:54.623Z,1.66
2022-11-07T10:29:21.027Z,1.90
2022-11-07T10:31:47.557Z,1.86
2022-11-07T10:34:13.990Z,1.83
2022-11-07T10:36:40.423Z,1.78
2022-11-07T10:39:06.831Z,1.93
2022-11-07T10:41:33.237Z,1.88
2022-11-07T10:43:59.820Z,1.86
2022-11-07T10:46:26.237Z,1.90
2022-11-07T10:48:52.830Z,1.85
2022-11-07T10:51:19.248Z,1.66
2022-11-07T10:53:45.639Z,1.67
2022-11-07T10:56:12.035Z,1.73
2022-11-07T10:58:38.423Z,1.76
2022-11-07T11:01:04.880Z,1.83
2022-11-07T11:03:43.123Z,1.86
2022-11-07T11:06:10.508Z,1.75
2022-11-07T11:08:36.924Z,1.70
2022-11-07T11:11:03.327Z,1.82
2022-11-07T11:13:29.717Z,1.63
2022-11-07T11:15:58.161Z,1.53
2022-11-07T11:18:27.703Z,1.56
2022-11-07T11:20:54.106Z,1.67
2022-11-07T11:23:20.619Z,1.53
2022-11-07T11:25:47.020Z,1.39
2022-11-07T11:28:13.800Z,1.51
2022-11-07T11:30:40.513Z,1.62
2022-11-07T11:33:06.927Z,1.66
2022-11-07T11:35:37.563Z,1.83
2022-11-07T11:38:06.870Z,1.39
2022-11-07T11:40:33.276Z,1.37
2022-11-07T11:42:59.665Z,1.61
2022-11-07T11:45:26.060Z,1.60
2022-11-07T11:47:52.457Z,1.40
2022-11-07T11:50:18.853Z,1.56
2022-11-07T11:52:45.244Z,1.38
2022-11-07T11:55:11.678Z,1.48
2022-11-07T11:57:38.103Z,1.44
2022-11-07T12:00:04.501Z,1.46
2022-11-07T12:02:30.951Z,1.42
2022-11-07T12:04:57.395Z,1.33
2022-11-07T12:07:23.800Z,1.58
2022-11-07T12:09:50.221Z,1.46
2022-11-07T12:12:16.641Z,1.49
2022-11-07T12:14:43.033Z,1.57
2022-11-07T12:17:09.439Z,1.39
2022-11-07T12:19:35.842Z,1.48
2022-11-07T12:22:03.707Z,1.72
2022-11-07T12:24:30.209Z,1.48
2022-11-07T12:26:58.144Z,1.52
2022-11-07T12:29:24.671Z,1.44
2022-11-07T12:31:51.043Z,1.31
2022-11-07T12:34:17.452Z,1.30
2022-11-07T12:36:43.856Z,1.44
2022-11-07T12:39:10.269Z,1.51
2022-11-07T12:41:36.688Z,1.34
2022-11-07T12:44:03.065Z,1.50
2022-11-07T12:46:29.474Z,1.51
2022-11-07T12:48:55.869Z,1.38
2022-11-07T12:51:22.328Z,1.28
2022-11-07T12:53:48.721Z,1.23
2022-11-07T12:56:15.117Z,1.26
2022-11-07T12:58:41.522Z,1.37
2022-11-07T13:01:08.009Z,1.42
2022-11-07T13:03:34.446Z,1.24
2022-11-07T13:06:00.845Z,1.24
2022-11-07T13:08:29.810Z,1.54
2022-11-07T13:11:00.442Z,1.35
2022-11-07T13:13:26.890Z,1.47
2022-11-07T13:16:14.639Z,1.30
2022-11-07T13:21:06.873Z,1.36
2022-11-07T13:23:33.283Z,1.44
2022-11-07T13:25:59.727Z,1.51
2022-11-07T13:28:26.132Z,1.48
2022-11-07T13:30:52.558Z,1.56
2022-11-07T13:33:19.136Z,1.47
2022-11-07T13:35:45.688Z,1.49
2022-11-07T13:38:12.110Z,1.45
2022-11-07T13:40:38.551Z,1.41
2022-11-07T13:43:04.983Z,1.57
2022-11-07T13:45:31.383Z,1.62
2022-11-07T13:47:57.828Z,1.42
2022-11-07T13:50:24.227Z,1.37
2022-11-07T13:52:50.644Z,1.40
2022-11-07T13:55:17.072Z,1.20
2022-11-07T13:57:43.700Z,1.19
2022-11-07T14:00:10.206Z,1.17
2022-11-07T14:02:36.845Z,1.08
2022-11-07T14:05:16.214Z,1.14
2022-11-07T14:07:43.506Z,1.29
2022-11-07T14:10:09.951Z,1.08
2022-11-07T14:12:36.359Z,1.19
2022-11-07T14:15:02.781Z,1.14
2022-11-07T14:17:29.203Z,1.30
2022-11-07T14:19:55.608Z,1.28
2022-11-07T14:22:22.032Z,1.18
2022-11-07T14:24:48.442Z,1.12
2022-11-07T14:27:14.867Z,1.06
2022-11-07T14:29:41.279Z,1.04
2022-11-07T14:32:07.676Z,0.97
2022-11-07T14:34:34.065Z,1.02
2022-11-07T14:37:00.485Z,1.17
2022-11-07T14:39:26.890Z,1.16
2022-11-07T14:41:53.326Z,1.16
2022-11-07T14:44:19.727Z,1.14
2022-11-07T14:46:46.144Z,1.10
2022-11-07T14:49:12.569Z,1.10
2022-11-07T14:51:38.987Z,1.08
2022-11-07T14:54:05.393Z,1.10
2022-11-07T14:56:31.800Z,1.02
2022-11-07T14:58:58.191Z,1.05
2022-11-07T15:01:24.693Z,0.88
2022-11-07T15:03:51.127Z,1.06
2022-11-07T15:06:17.548Z,1.08
2022-11-07T15:08:45.198Z,1.35
2022-11-07T15:11:11.633Z,1.29
2022-11-07T15:13:38.033Z,1.34
2022-11-07T15:16:04.467Z,1.23
2022-11-07T15:18:30.873Z,1.25
2022-11-07T15:20:57.295Z,1.27
2022-11-07T15:23:23.801Z,1.14
2022-11-07T15:25:50.182Z,1.32
2022-11-07T15:28:16.967Z,1.18
2022-11-07T15:30:43.570Z,3.12
2022-11-07T15:33:09.952Z,2.37
2022-11-07T15:35:44.818Z,2.64
2022-11-07T15:38:11.682Z,3.93
2022-11-07T15:40:38.083Z,2.69
2022-11-07T15:43:04.465Z,2.23
2022-11-07T15:45:30.887Z,2.26
2022-11-07T15:47:57.291Z,1.83
2022-11-07T15:50:23.675Z,1.80
2022-11-07T15:52:50.064Z,1.75
2022-11-07T15:55:16.475Z,1.84
2022-11-07T15:57:42.889Z,1.53
2022-11-07T16:00:09.274Z,1.19
2022-11-07T16:02:35.809Z,1.18
2022-11-07T16:05:02.298Z,1.32
2022-11-07T16:07:28.686Z,1.24
2022-11-07T16:09:55.062Z,1.25
2022-11-07T16:12:21.432Z,1.36
2022-11-07T16:14:47.905Z,2.41
2022-11-07T16:17:14.342Z,2.25
2022-11-07T16:19:40.773Z,5.74
2022-11-07T16:22:07.190Z,2.33
2022-11-07T16:24:33.623Z,1.80
2022-11-07T16:27:00.023Z,1.64
2022-11-07T16:29:26.461Z,1.59
2022-11-07T16:31:52.871Z,1.91
2022-11-07T16:34:19.252Z,2.42
2022-11-07T16:36:45.646Z,2.65
2022-11-07T16:39:12.144Z,2.26
2022-11-07T16:41:38.545Z,1.88
2022-11-07T16:44:05.000Z,1.88
2022-11-07T16:46:31.511Z,2.16
2022-11-07T16:48:57.924Z,2.05
2022-11-07T16:51:24.328Z,1.71
2022-11-07T16:53:50.751Z,1.61
2022-11-07T16:56:17.146Z,1.79
2022-11-07T16:58:43.568Z,1.51
2022-11-07T17:01:10.050Z,1.33
2022-11-07T17:03:36.471Z,3.80
2022-11-07T17:06:02.891Z,1.92
2022-11-07T17:08:29.338Z,1.75
2022-11-07T17:10:55.760Z,1.69
2022-11-07T17:13:22.282Z,1.87
2022-11-07T17:15:48.696Z,1.54
2022-11-07T17:18:15.202Z,2.07
2022-11-07T17:20:50.928Z,2.47
2022-11-07T17:23:18.196Z,5.38
2022-11-07T17:25:44.617Z,9.86
2022-11-07T17:28:11.041Z,3.71
2022-11-07T17:30:37.472Z,5.17
2022-11-07T17:33:03.895Z,3.68
2022-11-07T17:35:32.731Z,3.86
2022-11-07T17:37:59.411Z,4.91
2022-11-07T17:40:25.843Z,3.93
2022-11-07T17:42:52.290Z,3.89
2022-11-07T17:45:18.689Z,4.01
2022-11-07T17:47:45.081Z,4.64
2022-11-07T17:50:11.481Z,4.21
2022-11-07T17:52:37.871Z,3.46
2022-11-07T17:55:04.277Z,3.54
2022-11-07T17:57:30.699Z,4.07
2022-11-07T17:59:57.666Z,5.26
2022-11-07T18:02:24.153Z,5.70
2022-11-07T18:04:50.629Z,5.44
2022-11-07T18:07:17.037Z,6.54
2022-11-07T18:09:43.490Z,5.30
2022-11-07T18:12:09.929Z,4.22
2022-11-07T18:14:37.557Z,3.95
2022-11-07T18:17:04.027Z,3.64
2022-11-07T18:19:30.428Z,4.75
2022-11-07T18:21:56.826Z,3.26
2022-11-07T18:24:23.984Z,2.67
2022-11-07T18:26:50.618Z,2.53
2022-11-07T18:29:17.048Z,2.07
2022-11-07T18:31:43.484Z,1.69
2022-11-07T18:34:09.892Z,1.63
2022-11-07T18:36:36.392Z,1.39
2022-11-07T18:39:02.796Z,1.47
2022-11-07T18:41:29.192Z,2.71
2022-11-07T18:43:59.167Z,2.99
2022-11-07T18:46:28.160Z,3.38
2022-11-07T18:48:55.759Z,4.24
2022-11-07T18:51:22.190Z,4.50
2022-11-07T18:53:48.654Z,4.69
2022-11-07T18:56:15.078Z,4.86
2022-11-07T18:58:41.491Z,5.06
2022-11-07T19:01:08.110Z,4.51
2022-11-07T19:03:34.613Z,3.61
2022-11-07T19:06:01.010Z,3.10
2022-11-07T19:08:27.425Z,3.32
2022-11-07T19:10:53.848Z,3.55
2022-11-07T19:13:20.278Z,3.41
2022-11-07T19:15:46.700Z,3.06
2022-11-07T19:18:13.374Z,3.78
2022-11-07T19:20:39.991Z,3.19
2022-11-07T19:23:06.394Z,2.44
2022-11-07T19:25:32.804Z,2.36
2022-11-07T19:27:59.237Z,2.34
2022-11-07T19:30:25.645Z,2.47
2022-11-07T19:32:52.075Z,3.76
2022-11-07T19:35:18.480Z,3.26
2022-11-07T19:37:44.942Z,3.35
2022-11-07T19:40:11.337Z,3.61
2022-11-07T19:42:37.724Z,2.97
2022-11-07T19:45:04.163Z,2.69
2022-11-07T19:47:30.563Z,2.30
2022-11-07T19:49:56.937Z,1.92
2022-11-07T19:52:23.341Z,2.37
2022-11-07T19:54:49.742Z,2.64
2022-11-07T19:57:16.133Z,2.57
2022-11-07T19:59:42.557Z,3.39
2022-11-07T20:02:31.895Z,3.48
2022-11-07T20:04:55.390Z,2.31
2022-11-07T20:07:21.791Z,2.19
2022-11-07T20:09:48.181Z,1.96
2022-11-07T20:12:14.622Z,2.25
2022-11-07T20:14:40.998Z,2.80
2022-11-07T20:17:07.386Z,2.63
2022-11-07T20:19:33.882Z,2.57
2022-11-07T20:22:00.264Z,3.16
2022-11-07T20:24:26.657Z,3.28
2022-11-07T20:26:53.073Z,3.00
2022-11-07T20:29:19.455Z,2.65
2022-11-07T20:31:45.860Z,2.58
2022-11-07T20:34:12.270Z,2.65
2022-11-07T20:36:38.666Z,2.41
2022-11-07T20:39:05.117Z,2.41
2022-11-07T20:41:31.542Z,2.29
2022-11-07T20:43:57.977Z,2.19
2022-11-07T20:46:24.417Z,2.02
2022-11-07T20:48:50.838Z,2.08
2022-11-07T20:51:17.267Z,2.05
2022-11-07T20:53:49.566Z,2.02
2022-11-07T20:56:16.669Z,1.92
2022-11-07T20:58:43.220Z,2.17
2022-11-07T21:01:09.697Z,1.91
2022-11-07T21:03:36.189Z,1.95
2022-11-07T21:06:02.599Z,1.78
2022-11-07T21:08:31.986Z,2.09
2022-11-07T21:11:02.507Z,1.95
2022-11-07T21:13:29.265Z,2.20
2022-11-07T21:15:55.668Z,2.38
2022-11-07T21:18:22.063Z,2.29
2022-11-07T21:20:48.493Z,2.32
2022-11-07T21:23:15.248Z,2.50
2022-11-07T21:25:42.002Z,2.81
2022-11-07T21:28:08.431Z,2.56
2022-11-07T21:30:34.838Z,2.54
2022-11-07T21:33:01.236Z,2.52
2022-11-07T21:35:32.404Z,2.38
2022-11-07T21:37:59.983Z,2.31
2022-11-07T21:40:26.379Z,1.91
2022-11-07T21:42:52.785Z,1.93
2022-11-07T21:45:19.174Z,2.22
2022-11-07T21:47:46.244Z,2.07
2022-11-07T21:50:30.849Z,2.12
2022-11-07T21:52:59.046Z,1.83
2022-11-07T21:55:25.477Z,1.92
2022-11-07T21:57:51.900Z,1.84
2022-11-07T22:00:18.323Z,1.84
2022-11-07T22:02:44.758Z,2.03
2022-11-07T22:05:11.208Z,2.34
2022-11-07T22:07:37.616Z,2.57
2022-11-07T22:10:04.044Z,1.87
2022-11-07T22:12:30.472Z,2.15
2022-11-07T22:14:56.868Z,2.08
2022-11-07T22:17:23.283Z,2.24
2022-11-07T22:19:49.691Z,2.14
2022-11-07T22:22:16.082Z,2.09
2022-11-07T22:24:42.807Z,2.44
2022-11-07T22:27:09.242Z,2.29
2022-11-07T22:29:35.650Z,2.47
2022-11-07T22:32:02.085Z,2.57
2022-11-07T22:34:28.480Z,2.36
2022-11-07T22:36:54.901Z,2.23
2022-11-07T22:39:21.329Z,2.35
2022-11-07T22:41:47.739Z,2.32
2022-11-07T22:44:14.160Z,2.42
2022-11-07T22:46:40.540Z,2.40
2022-11-07T22:49:06.972Z,2.53
2022-11-07T22:51:33.380Z,2.83
2022-11-07T22:53:59.774Z,2.94
2022-11-07T22:56:26.165Z,3.28
2022-11-07T22:58:52.574Z,2.89
2022-11-07T23:01:18.958Z,2.95
2022-11-07T23:03:45.344Z,2.78
2022-11-07T23:06:11.810Z,2.66
2022-11-07T23:08:38.205Z,2.40
2022-11-07T23:13:50.974Z,2.72
2022-11-07T23:16:17.386Z,2.45
2022-11-07T23:18:43.801Z,2.42
2022-11-07T23:21:10.196Z,2.31
2022-11-07T23:23:36.585Z,2.36
2022-11-07T23:26:02.980Z,2.27
2022-11-07T23:28:29.406Z,2.17
2022-11-07T23:30:55.817Z,2.40
2022-11-07T23:33:22.288Z,2.23
2022-11-07T23:35:48.691Z,2.11
2022-11-07T23:38:15.466Z,2.24
2022-11-07T23:40:42.222Z,2.11
2022-11-07T23:43:08.619Z,2.06
2022-11-07T23:45:35.025Z,2.09
2022-11-07T23:48:01.397Z,2.11
2022-11-07T23:50:27.796Z,2.27
2022-11-07T23:52:54.185Z,2.32
2022-11-07T23:55:20.589Z,1.99
2022-11-07T23:57:46.991Z,2.29
